createdAt,value
2023-03-18T00:01:38.472Z,19.67
2023-03-18T00:04:07.664Z,19.72
2023-03-18T00:06:39.281Z,19.71
2023-03-18T00:09:08.472Z,19.72
2023-03-18T00:11:37.293Z,19.73
2023-03-18T00:14:06.872Z,19.74
2023-03-18T00:16:36.462Z,19.77
2023-03-18T00:19:05.861Z,19.74
2023-03-18T00:21:35.209Z,19.40
2023-03-18T00:24:04.534Z,19.44
2023-03-18T00:26:33.254Z,19.66
2023-03-18T00:29:02.954Z,19.63
2023-03-18T00:31:32.368Z,19.66
2023-03-18T00:34:01.852Z,19.69
2023-03-18T00:36:31.453Z,19.75
2023-03-18T00:39:04.238Z,19.81
2023-03-18T00:41:35.383Z,19.93
2023-03-18T00:44:04.872Z,19.74
2023-03-18T00:46:36.564Z,19.85
2023-03-18T00:49:09.162Z,19.89
2023-03-18T00:51:38.854Z,19.98
2023-03-18T00:54:09.534Z,19.90
2023-03-18T00:56:39.614Z,19.78
2023-03-18T00:59:09.747Z,19.87
2023-03-18T01:01:42.062Z,19.75
2023-03-18T01:04:17.304Z,19.83
2023-03-18T01:06:51.290Z,19.72
2023-03-18T01:09:24.219Z,19.82
2023-03-18T01:11:55.276Z,19.85
2023-03-18T01:14:26.000Z,19.89
2023-03-18T01:16:56.160Z,19.73
2023-03-18T01:19:27.874Z,19.62
2023-03-18T01:21:57.832Z,19.69
2023-03-18T01:24:28.509Z,19.78
2023-03-18T01:26:58.388Z,19.79
2023-03-18T01:29:29.105Z,19.88
2023-03-18T01:31:59.183Z,19.73
2023-03-18T01:34:28.929Z,19.69
2023-03-18T01:36:59.045Z,19.74
2023-03-18T01:39:32.121Z,19.78
2023-03-18T01:42:02.820Z,19.69
2023-03-18T01:44:35.043Z,19.70
2023-03-18T01:47:05.765Z,19.85
2023-03-18T01:49:57.330Z,19.90
2023-03-18T01:52:33.328Z,19.78
2023-03-18T01:55:08.433Z,19.79
2023-03-18T01:57:38.501Z,19.88
2023-03-18T02:00:09.073Z,19.79
2023-03-18T02:02:50.299Z,19.90
2023-03-18T02:07:54.342Z,19.93
2023-03-18T02:10:30.879Z,20.01
2023-03-18T02:13:06.708Z,19.83
2023-03-18T02:15:47.907Z,20.01
2023-03-18T02:18:26.583Z,20.05
2023-03-18T02:21:11.717Z,20.16
2023-03-18T02:24:07.526Z,20.17
2023-03-18T02:27:15.497Z,20.24
2023-03-18T02:29:47.367Z,20.25
2023-03-18T02:32:22.959Z,20.37
2023-03-18T02:34:52.913Z,20.13
2023-03-18T02:37:22.825Z,20.19
2023-03-18T02:39:53.422Z,20.02
2023-03-18T02:42:33.531Z,20.19
2023-03-18T02:45:04.590Z,20.21
2023-03-18T02:47:46.623Z,20.47
2023-03-18T02:50:17.118Z,20.44
2023-03-18T02:52:47.758Z,20.58
2023-03-18T02:55:18.202Z,20.52
2023-03-18T02:57:48.762Z,20.52
2023-03-18T03:00:19.371Z,20.60
2023-03-18T03:02:49.915Z,20.75
2023-03-18T03:05:19.877Z,20.92
2023-03-18T03:07:49.740Z,20.85
2023-03-18T03:10:19.650Z,20.96
2023-03-18T03:12:50.253Z,21.17
2023-03-18T03:15:20.776Z,21.14
2023-03-18T03:17:56.993Z,21.00
2023-03-18T03:20:27.055Z,20.89
2023-03-18T03:22:57.356Z,21.03
2023-03-18T03:25:28.604Z,21.14
2023-03-18T03:27:59.045Z,21.22
2023-03-18T03:30:29.072Z,21.34
2023-03-18T03:32:59.680Z,21.46
2023-03-18T03:35:29.642Z,21.51
2023-03-18T03:38:00.903Z,21.69
2023-03-18T03:40:31.161Z,21.66
2023-03-18T03:43:01.408Z,21.69
2023-03-18T03:45:31.434Z,21.76
2023-03-18T03:48:02.035Z,21.81
2023-03-18T03:50:32.791Z,21.88
2023-03-18T03:53:03.720Z,22.18
2023-03-18T03:55:34.947Z,22.19
2023-03-18T03:58:05.589Z,22.23
2023-03-18T04:00:36.824Z,22.53
2023-03-18T04:03:06.857Z,22.37
2023-03-18T04:05:36.569Z,22.69
2023-03-18T04:08:07.817Z,22.89
2023-03-18T04:10:40.263Z,22.96
2023-03-18T04:13:12.754Z,22.97
2023-03-18T04:15:43.347Z,23.11
2023-03-18T04:18:18.124Z,23.00
2023-03-18T04:20:48.889Z,23.22
2023-03-18T04:23:34.379Z,23.49
2023-03-18T04:26:04.268Z,23.36
2023-03-18T04:28:35.571Z,23.41
2023-03-18T04:31:07.305Z,23.45
2023-03-18T04:33:37.213Z,23.64
2023-03-18T04:36:07.613Z,23.83
2023-03-18T04:38:38.295Z,23.78
2023-03-18T04:41:08.826Z,23.71
2023-03-18T04:43:38.756Z,23.56
2023-03-18T04:46:09.847Z,23.65
2023-03-18T04:48:41.000Z,23.93
2023-03-18T04:51:11.573Z,23.82
2023-03-18T04:53:41.554Z,23.80
2023-03-18T04:56:12.637Z,23.88
2023-03-18T04:58:50.847Z,23.97
2023-03-18T05:01:25.498Z,24.17
2023-03-18T05:03:56.275Z,24.21
2023-03-18T05:06:34.678Z,24.30
2023-03-18T05:09:14.138Z,24.44
2023-03-18T05:11:45.889Z,24.58
2023-03-18T05:14:30.391Z,24.52
2023-03-18T05:17:01.547Z,24.63
2023-03-18T05:19:32.899Z,24.86
2023-03-18T05:22:12.876Z,24.80
2023-03-18T05:24:44.721Z,24.97
2023-03-18T05:27:20.501Z,25.39
2023-03-18T05:29:59.475Z,25.51
2023-03-18T05:32:45.772Z,25.52
2023-03-18T05:35:16.297Z,25.63
2023-03-18T05:37:51.730Z,25.59
2023-03-18T05:40:23.398Z,25.53
2023-03-18T05:43:06.621Z,25.54
2023-03-18T05:45:43.646Z,25.68
2023-03-18T05:48:16.834Z,25.76
2023-03-18T05:50:53.760Z,25.74
2023-03-18T05:53:28.069Z,25.76
2023-03-18T05:56:08.068Z,25.80
2023-03-18T05:58:37.972Z,25.92
2023-03-18T06:01:26.923Z,25.94
2023-03-18T06:03:58.114Z,25.80
2023-03-18T06:06:28.520Z,25.67
2023-03-18T06:08:59.769Z,25.75
2023-03-18T06:11:30.774Z,25.75
2023-03-18T06:14:00.896Z,25.99
2023-03-18T06:16:31.256Z,26.13
2023-03-18T06:19:01.774Z,25.98
2023-03-18T06:21:35.484Z,25.86
2023-03-18T06:24:09.231Z,26.13
2023-03-18T06:26:41.037Z,26.40
2023-03-18T06:29:12.177Z,26.27
2023-03-18T06:31:42.173Z,26.62
2023-03-18T06:34:15.216Z,26.44
2023-03-18T06:36:46.324Z,26.27
2023-03-18T06:39:20.837Z,25.80
2023-03-18T06:41:51.146Z,26.12
2023-03-18T06:44:34.375Z,26.21
2023-03-18T06:47:15.829Z,26.22
2023-03-18T06:49:53.727Z,26.21
2023-03-18T06:52:30.680Z,26.01
2023-03-18T06:55:08.118Z,25.93
2023-03-18T06:57:41.865Z,25.88
2023-03-18T07:00:13.040Z,26.13
2023-03-18T07:02:42.966Z,26.30
2023-03-18T07:05:14.636Z,26.19
2023-03-18T07:07:45.312Z,26.28
2023-03-18T07:10:21.839Z,26.80
2023-03-18T07:12:53.271Z,26.64
2023-03-18T07:15:24.298Z,26.78
2023-03-18T07:17:57.017Z,26.93
2023-03-18T07:20:25.905Z,27.05
2023-03-18T07:23:07.901Z,27.09
2023-03-18T07:25:42.977Z,26.91
2023-03-18T07:28:12.522Z,27.12
2023-03-18T07:30:41.346Z,26.92
2023-03-18T07:33:10.603Z,26.75
2023-03-18T07:35:42.084Z,26.74
2023-03-18T07:38:12.106Z,26.90
2023-03-18T07:40:41.205Z,27.17
2023-03-18T07:43:10.334Z,26.75
2023-03-18T07:45:39.594Z,26.63
2023-03-18T07:48:08.591Z,26.41
2023-03-18T07:50:37.630Z,26.61
2023-03-18T07:53:06.539Z,26.52
2023-03-18T07:55:35.538Z,26.86
2023-03-18T07:58:05.785Z,26.98
2023-03-18T08:00:34.681Z,26.85
2023-03-18T08:03:04.955Z,27.04
2023-03-18T08:05:34.835Z,26.91
2023-03-18T08:08:05.348Z,26.95
2023-03-18T08:10:35.163Z,27.14
2023-03-18T08:13:04.950Z,26.93
2023-03-18T08:15:34.321Z,26.73
2023-03-18T08:18:03.694Z,26.66
2023-03-18T08:20:32.628Z,26.79
2023-03-18T08:23:01.728Z,26.82
2023-03-18T08:25:31.183Z,26.56
2023-03-18T08:28:00.566Z,26.53
2023-03-18T08:30:29.776Z,26.82
2023-03-18T08:32:59.011Z,26.96
2023-03-18T08:35:27.856Z,26.77
2023-03-18T08:37:56.811Z,26.74
2023-03-18T08:40:27.074Z,26.87
2023-03-18T08:42:56.848Z,26.65
2023-03-18T08:45:28.299Z,26.48
2023-03-18T08:47:57.495Z,26.54
2023-03-18T08:50:29.604Z,26.39
2023-03-18T08:53:00.681Z,26.46
2023-03-18T08:55:35.880Z,26.55
2023-03-18T08:58:06.734Z,26.42
2023-03-18T09:00:38.745Z,26.66
2023-03-18T09:03:08.606Z,26.73
2023-03-18T09:05:38.647Z,26.42
2023-03-18T09:08:09.443Z,26.46
2023-03-18T09:10:38.465Z,26.80
2023-03-18T09:13:07.189Z,26.72
2023-03-18T09:15:36.156Z,26.80
2023-03-18T09:18:11.669Z,26.92
2023-03-18T09:20:42.693Z,26.82
2023-03-18T09:23:13.498Z,26.87
2023-03-18T09:25:45.810Z,26.86
2023-03-18T09:28:15.469Z,27.01
2023-03-18T09:30:44.501Z,27.05
2023-03-18T09:33:14.616Z,26.96
2023-03-18T09:35:43.910Z,27.07
2023-03-18T09:38:21.124Z,27.01
2023-03-18T09:41:02.953Z,27.06
2023-03-18T09:43:45.542Z,27.10
2023-03-18T09:46:28.225Z,27.34
2023-03-18T09:49:18.882Z,27.14
2023-03-18T09:52:09.114Z,26.90
2023-03-18T09:55:03.561Z,26.62
2023-03-18T09:57:39.861Z,26.69
2023-03-18T10:00:30.889Z,26.68
2023-03-18T10:03:11.944Z,26.48
2023-03-18T10:05:54.942Z,26.14
2023-03-18T10:08:36.444Z,26.15
2023-03-18T10:11:14.358Z,25.93
2023-03-18T10:13:53.881Z,26.08
2023-03-18T10:16:28.420Z,25.88
2023-03-18T10:18:58.237Z,25.77
2023-03-18T10:21:52.706Z,25.80
2023-03-18T10:24:43.838Z,25.51
2023-03-18T10:27:39.184Z,25.75
2023-03-18T10:30:21.231Z,25.85
2023-03-18T10:33:15.360Z,25.83
2023-03-18T10:35:53.847Z,25.82
2023-03-18T10:38:42.822Z,25.72
2023-03-18T10:41:34.387Z,25.86
2023-03-18T10:44:26.015Z,25.78
2023-03-18T10:47:09.503Z,25.69
2023-03-18T10:49:56.827Z,25.82
2023-03-18T10:52:41.228Z,25.84
2023-03-18T10:55:19.490Z,25.69
2023-03-18T10:57:48.699Z,25.63
2023-03-18T11:00:38.372Z,25.82
2023-03-18T11:03:08.420Z,25.73
2023-03-18T11:05:39.689Z,25.68
2023-03-18T11:08:29.865Z,25.56
2023-03-18T11:10:59.377Z,25.50
2023-03-18T11:13:28.053Z,25.47
2023-03-18T11:15:58.359Z,25.65
2023-03-18T11:18:28.817Z,25.42
2023-03-18T11:21:05.672Z,25.29
2023-03-18T11:23:56.971Z,25.13
2023-03-18T11:26:30.914Z,25.15
2023-03-18T11:29:12.312Z,24.88
2023-03-18T11:31:59.013Z,25.00
2023-03-18T11:34:30.382Z,24.94
2023-03-18T11:37:09.204Z,24.74
2023-03-18T11:39:42.439Z,24.50
2023-03-18T11:42:24.138Z,24.62
2023-03-18T11:44:57.994Z,24.54
2023-03-18T11:47:31.969Z,24.48
2023-03-18T11:50:03.855Z,24.59
2023-03-18T11:53:23.559Z,24.61
2023-03-18T11:56:19.952Z,24.69
2023-03-18T11:58:58.016Z,24.55
2023-03-18T12:01:55.052Z,24.61
2023-03-18T12:04:24.383Z,24.55
2023-03-18T12:07:40.314Z,24.55
2023-03-18T12:10:31.543Z,24.54
2023-03-18T12:13:37.871Z,24.53
2023-03-18T12:16:15.869Z,24.36
2023-03-18T12:18:57.605Z,24.36
2023-03-18T12:22:07.450Z,24.39
2023-03-18T12:24:57.871Z,24.35
2023-03-18T12:27:40.109Z,24.25
2023-03-18T12:30:30.535Z,24.17
2023-03-18T12:33:11.615Z,24.13
2023-03-18T12:36:04.874Z,24.01
2023-03-18T12:39:06.824Z,23.86
2023-03-18T12:41:47.858Z,24.00
2023-03-18T12:44:37.703Z,23.97
2023-03-18T12:47:09.476Z,23.89
2023-03-18T12:49:49.514Z,23.80
2023-03-18T12:52:40.593Z,23.72
2023-03-18T12:55:26.329Z,23.69
2023-03-18T12:58:02.452Z,23.61
2023-03-18T13:00:59.607Z,23.50
2023-03-18T13:03:41.087Z,23.52
2023-03-18T13:06:19.741Z,23.43
2023-03-18T13:09:25.501Z,23.44
2023-03-18T13:12:09.081Z,23.33
2023-03-18T13:14:50.009Z,23.21
2023-03-18T13:17:33.915Z,23.35
2023-03-18T13:20:05.743Z,23.11
2023-03-18T13:22:43.347Z,23.10
2023-03-18T13:25:45.723Z,23.22
2023-03-18T13:28:49.524Z,23.11
2023-03-18T13:31:26.071Z,22.96
2023-03-18T13:34:00.774Z,22.92
2023-03-18T13:36:50.790Z,22.91
2023-03-18T13:40:15.004Z,22.99
2023-03-18T13:42:45.428Z,22.85
2023-03-18T13:45:39.994Z,22.97
2023-03-18T13:48:17.403Z,22.81
2023-03-18T13:50:49.604Z,22.74
2023-03-18T13:53:40.120Z,22.91
2023-03-18T13:56:45.071Z,22.84
2023-03-18T13:59:35.689Z,22.66
2023-03-18T14:02:23.183Z,22.68
2023-03-18T14:04:54.102Z,22.62
2023-03-18T14:07:24.545Z,22.54
2023-03-18T14:10:21.836Z,22.71
2023-03-18T14:12:51.274Z,22.54
2023-03-18T14:15:40.333Z,22.64
2023-03-18T14:18:28.872Z,22.63
2023-03-18T14:21:03.418Z,22.55
2023-03-18T14:23:41.302Z,22.39
2023-03-18T14:26:22.766Z,22.47
2023-03-18T14:29:32.470Z,22.45
2023-03-18T14:32:06.196Z,22.47
2023-03-18T14:34:54.616Z,22.46
2023-03-18T14:37:33.587Z,22.41
2023-03-18T14:40:23.295Z,22.45
2023-03-18T14:43:04.525Z,22.39
2023-03-18T14:45:37.017Z,22.19
2023-03-18T14:48:31.482Z,22.09
2023-03-18T14:51:09.150Z,22.16
2023-03-18T14:54:21.777Z,22.11
2023-03-18T14:56:56.487Z,22.06
2023-03-18T14:59:26.527Z,22.06
2023-03-18T15:01:56.434Z,22.00
2023-03-18T15:04:29.003Z,22.03
2023-03-18T15:07:04.790Z,21.98
2023-03-18T15:09:37.061Z,21.90
2023-03-18T15:12:21.128Z,21.95
2023-03-18T15:14:52.227Z,21.88
2023-03-18T15:17:21.565Z,21.82
2023-03-18T15:19:50.367Z,21.85
2023-03-18T15:22:27.299Z,21.92
2023-03-18T15:25:02.247Z,21.91
2023-03-18T15:27:36.634Z,21.85
2023-03-18T15:30:08.514Z,21.90
2023-03-18T15:32:52.654Z,21.97
2023-03-18T15:35:25.769Z,21.87
2023-03-18T15:38:20.678Z,21.88
2023-03-18T15:40:53.481Z,21.85
2023-03-18T15:43:45.989Z,21.91
2023-03-18T15:46:31.868Z,21.89
2023-03-18T15:49:06.455Z,21.81
2023-03-18T15:51:46.104Z,21.76
2023-03-18T15:54:25.817Z,21.84
2023-03-18T15:56:58.122Z,21.68
2023-03-18T15:59:30.476Z,21.73
2023-03-18T16:02:01.327Z,21.69
2023-03-18T16:04:35.116Z,21.81
2023-03-18T16:07:05.345Z,21.70
2023-03-18T16:09:35.773Z,21.67
2023-03-18T16:12:20.100Z,21.74
2023-03-18T16:14:51.927Z,21.66
2023-03-18T16:17:22.821Z,21.58
2023-03-18T16:19:56.104Z,21.64
2023-03-18T16:22:25.247Z,21.60
2023-03-18T16:24:54.172Z,21.50
2023-03-18T16:27:34.748Z,21.57
2023-03-18T16:30:03.748Z,21.53
2023-03-18T16:32:32.642Z,21.48
2023-03-18T16:35:01.707Z,21.52
2023-03-18T16:37:30.788Z,21.41
2023-03-18T16:39:59.872Z,21.51
2023-03-18T16:42:28.755Z,21.46
2023-03-18T16:44:57.748Z,21.46
2023-03-18T16:47:28.727Z,21.47
2023-03-18T16:49:58.828Z,21.32
2023-03-18T16:52:27.669Z,21.35
2023-03-18T16:54:56.593Z,21.41
2023-03-18T16:57:25.874Z,21.38
2023-03-18T16:59:57.681Z,21.34
2023-03-18T17:02:36.644Z,21.41
2023-03-18T17:05:06.538Z,21.27
2023-03-18T17:07:37.949Z,21.27
2023-03-18T17:10:09.867Z,21.24
2023-03-18T17:12:40.262Z,21.32
2023-03-18T17:15:13.077Z,21.34
2023-03-18T17:17:42.061Z,21.45
2023-03-18T17:20:22.399Z,21.35
2023-03-18T17:22:51.289Z,21.28
2023-03-18T17:25:20.080Z,21.24
2023-03-18T17:27:56.278Z,21.22
2023-03-18T17:30:35.228Z,21.26
2023-03-18T17:33:06.278Z,21.18
2023-03-18T17:35:35.703Z,21.18
2023-03-18T17:38:04.765Z,21.18
2023-03-18T17:40:33.882Z,21.16
2023-03-18T17:43:02.789Z,21.18
2023-03-18T17:45:34.958Z,21.21
2023-03-18T17:48:27.689Z,21.15
2023-03-18T17:51:18.536Z,21.09
2023-03-18T17:53:54.821Z,21.13
2023-03-18T17:56:24.160Z,21.05
2023-03-18T17:58:53.356Z,21.07
2023-03-18T18:01:28.238Z,21.10
2023-03-18T18:04:01.269Z,21.09
2023-03-18T18:06:31.146Z,21.00
2023-03-18T18:09:01.791Z,21.01
2023-03-18T18:11:40.069Z,20.97
2023-03-18T18:14:25.793Z,20.98
2023-03-18T18:16:57.035Z,20.88
2023-03-18T18:19:26.393Z,20.91
2023-03-18T18:21:55.821Z,20.89
2023-03-18T18:24:30.261Z,20.92
2023-03-18T18:26:59.219Z,20.84
2023-03-18T18:29:30.605Z,20.85
2023-03-18T18:31:59.849Z,20.78
2023-03-18T18:34:28.541Z,20.70
2023-03-18T18:36:58.533Z,20.71
2023-03-18T18:39:27.183Z,20.71
2023-03-18T18:41:56.106Z,20.73
2023-03-18T18:44:24.967Z,20.76
2023-03-18T18:46:54.754Z,20.72
2023-03-18T18:49:25.520Z,20.66
2023-03-18T18:51:56.470Z,20.73
2023-03-18T18:54:26.571Z,20.75
2023-03-18T18:56:55.740Z,20.78
2023-03-18T18:59:30.059Z,20.79
2023-03-18T19:01:59.423Z,20.76
2023-03-18T19:04:28.385Z,20.73
2023-03-18T19:06:57.710Z,20.79
2023-03-18T19:09:28.200Z,20.78
2023-03-18T19:11:59.948Z,20.76
2023-03-18T19:14:30.476Z,20.83
2023-03-18T19:17:00.892Z,20.78
2023-03-18T19:19:33.877Z,20.76
2023-03-18T19:22:03.959Z,20.84
2023-03-18T19:24:36.953Z,20.80
2023-03-18T19:27:13.792Z,20.86
2023-03-18T19:29:43.268Z,20.73
2023-03-18T19:32:19.060Z,20.70
2023-03-18T19:34:49.365Z,20.77
2023-03-18T19:37:30.394Z,20.81
2023-03-18T19:40:01.596Z,20.71
2023-03-18T19:42:30.695Z,20.63
2023-03-18T19:44:59.417Z,20.66
2023-03-18T19:47:32.126Z,20.67
2023-03-18T19:50:02.219Z,20.61
2023-03-18T19:52:31.575Z,20.62
2023-03-18T19:55:00.632Z,20.57
2023-03-18T19:57:32.727Z,20.63
2023-03-18T20:00:06.735Z,20.55
2023-03-18T20:02:36.200Z,20.42
2023-03-18T20:05:17.758Z,20.67
2023-03-18T20:07:47.399Z,20.55
2023-03-18T20:10:16.349Z,20.54
2023-03-18T20:12:48.521Z,20.56
2023-03-18T20:15:23.614Z,20.56
2023-03-18T20:17:54.072Z,20.54
2023-03-18T20:20:31.600Z,20.23
2023-03-18T20:23:13.188Z,20.48
2023-03-18T20:25:45.660Z,20.52
2023-03-18T20:28:20.765Z,20.59
2023-03-18T20:30:53.056Z,20.56
2023-03-18T20:33:23.550Z,20.62
2023-03-18T20:35:54.775Z,20.48
2023-03-18T20:38:33.855Z,20.44
2023-03-18T20:41:03.683Z,20.48
2023-03-18T20:43:32.528Z,20.46
2023-03-18T20:46:03.008Z,20.41
2023-03-18T20:48:32.128Z,20.43
2023-03-18T20:51:00.862Z,20.36
2023-03-18T20:53:30.305Z,20.30
2023-03-18T20:55:59.470Z,20.32
2023-03-18T20:58:29.336Z,20.36
2023-03-18T21:00:58.494Z,20.24
2023-03-18T21:03:30.366Z,20.31
2023-03-18T21:06:02.470Z,20.38
2023-03-18T21:08:32.970Z,20.37
2023-03-18T21:11:03.005Z,20.24
2023-03-18T21:13:42.648Z,20.31
2023-03-18T21:16:15.916Z,20.32
2023-03-18T21:18:46.937Z,20.24
2023-03-18T21:21:26.997Z,20.33
2023-03-18T21:23:56.265Z,20.26
2023-03-18T21:26:25.560Z,20.27
2023-03-18T21:28:54.535Z,20.20
2023-03-18T21:31:34.644Z,20.37
2023-03-18T21:34:04.928Z,20.16
2023-03-18T21:36:34.776Z,20.19
2023-03-18T21:39:03.612Z,20.19
2023-03-18T21:41:34.529Z,20.22
2023-03-18T21:44:03.922Z,20.12
2023-03-18T21:46:32.985Z,19.97
2023-03-18T21:49:02.200Z,19.97
2023-03-18T21:51:39.861Z,20.03
2023-03-18T21:54:20.075Z,19.90
2023-03-18T21:56:49.122Z,19.75
2023-03-18T21:59:17.796Z,19.80
2023-03-18T22:01:47.032Z,19.64
2023-03-18T22:04:15.926Z,19.81
2023-03-18T22:06:44.985Z,19.84
2023-03-18T22:09:13.648Z,19.77
2023-03-18T22:11:42.824Z,19.81
2023-03-18T22:14:15.377Z,19.92
2023-03-18T22:16:44.590Z,19.47
2023-03-18T22:19:13.327Z,19.75
2023-03-18T22:21:42.541Z,19.78
2023-03-18T22:24:15.865Z,19.56
2023-03-18T22:26:44.942Z,19.53
2023-03-18T22:29:13.636Z,19.54
2023-03-18T22:31:43.635Z,19.32
2023-03-18T22:34:25.613Z,19.51
2023-03-18T22:36:54.756Z,19.38
2023-03-18T22:39:23.460Z,19.41
2023-03-18T22:41:52.511Z,19.34
2023-03-18T22:44:24.533Z,19.53
2023-03-18T22:46:53.610Z,19.51
2023-03-18T22:49:22.296Z,19.61
2023-03-18T22:51:52.257Z,19.67
2023-03-18T22:54:21.494Z,19.40
2023-03-18T22:56:50.219Z,19.31
2023-03-18T22:59:19.313Z,19.35
2023-03-18T23:01:48.343Z,19.57
2023-03-18T23:04:19.659Z,19.39
2023-03-18T23:06:48.965Z,19.54
2023-03-18T23:09:17.784Z,19.51
2023-03-18T23:11:47.185Z,19.30
2023-03-18T23:14:15.908Z,19.48
2023-03-18T23:16:44.834Z,19.51
2023-03-18T23:19:13.577Z,19.32
2023-03-18T23:21:42.742Z,19.45
2023-03-18T23:24:12.138Z,19.34
2023-03-18T23:26:42.628Z,19.41
2023-03-18T23:29:11.321Z,19.49
2023-03-18T23:31:40.378Z,19.55
2023-03-18T23:34:09.438Z,19.54
2023-03-18T23:36:38.758Z,19.49
2023-03-18T23:39:07.889Z,19.52
2023-03-18T23:41:37.086Z,19.42
2023-03-18T23:44:05.910Z,19.41
2023-03-18T23:46:35.018Z,19.53
2023-03-18T23:49:03.860Z,19.58
2023-03-18T23:51:33.173Z,19.50
2023-03-18T23:54:01.919Z,19.42
2023-03-18T23:56:30.948Z,19.49
2023-03-18T23:58:59.798Z,19.58
